Time;durP1;ratioP1;P1;durP2;ratioP2;P2;SDS_P1;SDS_P2;PMS_P1;PMS_P2;Temp;Humidity;BMP_temperature;BMP_pressure;BME280_temperature;BME280_humidity;BME280_pressure;Samples;Min_cycle;Max_cycle;Signal;HPM_P1;HPM_P2
2021/08/25 00:01:34;;;;;;;7.03;3.13;;;;;;;;;;4989318;28;20183;-54
2021/08/25 00:03:59;;;;;;;4.33;2.90;;;;;;;;;;4992100;28;20182;-54
2021/08/25 00:06:24;;;;;;;8.63;3.20;;;;;;;;;;5003414;28;20184;-54
2021/08/25 00:08:50;;;;;;;5.33;3.13;;;;;;;;;;4998669;28;20206;-54
2021/08/25 00:11:15;;;;;;;5.67;3.27;;;;;;;;;;5001639;28;20230;-57
2021/08/25 00:13:40;;;;;;;6.23;3.67;;;;;;;;;;5010254;28;20198;-55
2021/08/25 00:16:06;;;;;;;3.97;2.97;;;;;;;;;;5013121;28;20172;-55
2021/08/25 00:18:31;;;;;;;4.40;3.30;;;;;;;;;;5012672;28;20171;-54
2021/08/25 00:20:57;;;;;;;5.57;3.13;;;;;;;;;;5011023;28;20245;-55
2021/08/25 00:23:22;;;;;;;5.37;2.80;;;;;;;;;;4998771;28;20187;-54
2021/08/25 00:25:47;;;;;;;6.83;3.17;;;;;;;;;;5008667;28;20580;-56
2021/08/25 00:28:13;;;;;;;5.83;3.40;;;;;;;;;;5000799;28;20655;-55
2021/08/25 00:30:38;;;;;;;8.23;3.10;;;;;;;;;;5010617;28;20578;-55
2021/08/25 00:33:03;;;;;;;5.47;2.83;;;;;;;;;;5013452;28;20546;-55
2021/08/25 00:35:28;;;;;;;4.33;3.30;;;;;;;;;;5009945;28;20179;-54
2021/08/25 00:37:53;;;;;;;6.93;3.00;;;;;;;;;;4991944;28;20203;-54
2021/08/25 00:40:19;;;;;;;4.33;3.00;;;;;;;;;;5004179;28;20187;-57
2021/08/25 00:42:44;;;;;;;4.63;3.10;;;;;;;;;;4996728;28;20767;-56
2021/08/25 00:45:10;;;;;;;5.80;2.90;;;;;;;;;;4988339;28;20172;-56
2021/08/25 00:47:35;;;;;;;4.50;3.13;;;;;;;;;;4992204;28;20184;-55
2021/08/25 00:50:01;;;;;;;4.43;3.30;;;;;;;;;;4994823;28;20206;-55
2021/08/25 00:52:26;;;;;;;8.23;3.67;;;;;;;;;;4995220;28;20204;-55
2021/08/25 00:54:51;;;;;;;3.53;2.90;;;;;;;;;;5008526;28;20214;-56
2021/08/25 00:57:17;;;;;;;6.63;2.80;;;;;;;;;;5004978;28;20180;-54
2021/08/25 00:59:42;;;;;;;3.80;2.80;;;;;;;;;;5012989;28;20703;-55
2021/08/25 01:02:07;;;;;;;5.17;3.20;;;;;;;;;;5003312;28;20267;-55
2021/08/25 01:04:41;;;;;;;3.73;2.67;;;;;;;;;;4993145;28;20176;-55
2021/08/25 01:07:07;;;;;;;5.27;3.20;;;;;;;;;;5006453;28;20183;-54
2021/08/25 01:09:35;;;;;;;4.90;3.30;;;;;;;;;;5006119;28;20214;-56
2021/08/25 01:12:01;;;;;;;9.53;3.47;;;;;;;;;;5006496;28;20211;-54
2021/08/25 01:14:26;;;;;;;8.40;3.20;;;;;;;;;;4993434;28;20172;-56
2021/08/25 01:16:52;;;;;;;4.63;3.30;;;;;;;;;;4993444;28;20172;-55
2021/08/25 01:19:17;;;;;;;3.37;2.40;;;;;;;;;;5007455;28;20187;-56
2021/08/25 01:21:44;;;;;;;5.40;3.00;;;;;;;;;;5004324;28;20681;-54
2021/08/25 01:24:10;;;;;;;4.07;2.87;;;;;;;;;;4995264;28;20217;-56
2021/08/25 01:26:35;;;;;;;4.67;3.13;;;;;;;;;;5011664;28;20183;-55
2021/08/25 01:29:01;;;;;;;5.10;3.13;;;;;;;;;;5003094;28;20609;-54
2021/08/25 01:31:26;;;;;;;4.50;2.93;;;;;;;;;;5004843;28;20870;-55
2021/08/25 01:34:01;;;;;;;5.23;2.97;;;;;;;;;;4992885;28;20168;-55
2021/08/25 01:36:26;;;;;;;5.83;3.00;;;;;;;;;;5002212;28;20694;-55
2021/08/25 01:38:54;;;;;;;8.37;3.27;;;;;;;;;;4995964;28;20200;-57
2021/08/25 01:41:20;;;;;;;5.57;3.00;;;;;;;;;;4998968;28;20194;-56
2021/08/25 01:43:46;;;;;;;3.43;2.60;;;;;;;;;;4999144;28;20196;-56
2021/08/25 01:46:24;;;;;;;5.50;2.63;;;;;;;;;;4992547;28;20172;-55
2021/08/25 01:48:50;;;;;;;3.90;2.80;;;;;;;;;;4992201;28;20203;-56
2021/08/25 01:51:15;;;;;;;3.70;2.80;;;;;;;;;;4998693;28;20253;-58
2021/08/25 01:53:40;;;;;;;6.57;3.10;;;;;;;;;;4996632;28;20179;-56
2021/08/25 01:56:05;;;;;;;4.17;2.90;;;;;;;;;;4996692;28;20182;-54
2021/08/25 01:58:30;;;;;;;3.77;2.80;;;;;;;;;;5002610;28;20168;-55
2021/08/25 02:00:56;;;;;;;4.20;3.07;;;;;;;;;;5011974;28;20207;-56
2021/08/25 02:03:21;;;;;;;10.03;3.77;;;;;;;;;;4993559;28;20599;-55
2021/08/25 02:05:46;;;;;;;7.07;3.23;;;;;;;;;;4994273;28;20221;-56
2021/08/25 02:08:12;;;;;;;5.47;3.17;;;;;;;;;;4999658;28;20184;-55
2021/08/25 02:10:37;;;;;;;6.07;3.23;;;;;;;;;;5026188;23;20222;-56
2021/08/25 02:13:03;;;;;;;3.73;2.80;;;;;;;;;;5029244;28;20171;-56
2021/08/25 02:15:28;;;;;;;4.30;2.93;;;;;;;;;;5030498;28;20253;-56
2021/08/25 02:17:53;;;;;;;4.67;3.47;;;;;;;;;;5028253;28;20171;-55
2021/08/25 02:20:18;;;;;;;4.73;3.03;;;;;;;;;;4998235;28;20224;-55
2021/08/25 02:22:43;;;;;;;4.47;3.30;;;;;;;;;;5007608;28;20791;-56
2021/08/25 02:25:09;;;;;;;3.87;2.93;;;;;;;;;;5000688;28;20172;-56
2021/08/25 02:27:34;;;;;;;6.03;3.30;;;;;;;;;;5008603;28;20230;-56
2021/08/25 02:29:59;;;;;;;8.20;3.30;;;;;;;;;;5006124;28;20205;-56
2021/08/25 02:32:25;;;;;;;3.43;2.57;;;;;;;;;;5011682;28;20207;-54
2021/08/25 02:34:50;;;;;;;3.40;2.87;;;;;;;;;;4990009;28;20184;-55
2021/08/25 02:37:16;;;;;;;6.87;3.33;;;;;;;;;;5003020;28;20175;-57
2021/08/25 02:39:41;;;;;;;5.87;3.20;;;;;;;;;;5004227;28;20196;-56
2021/08/25 02:42:06;;;;;;;4.77;2.87;;;;;;;;;;5008364;28;20689;-56
2021/08/25 02:44:32;;;;;;;4.97;3.00;;;;;;;;;;4995861;28;20219;-55
2021/08/25 02:46:57;;;;;;;4.47;3.17;;;;;;;;;;4991785;28;20187;-55
2021/08/25 02:49:22;;;;;;;5.97;3.23;;;;;;;;;;4991208;28;20243;-57
2021/08/25 02:51:47;;;;;;;3.23;2.50;;;;;;;;;;4998177;28;20282;-56
2021/08/25 02:54:12;;;;;;;3.57;2.80;;;;;;;;;;5000429;28;20194;-54
2021/08/25 02:56:37;;;;;;;4.60;2.73;;;;;;;;;;5008866;28;20207;-56
2021/08/25 02:59:03;;;;;;;5.10;3.40;;;;;;;;;;5002432;28;20203;-55
2021/08/25 03:01:28;;;;;;;5.87;3.60;;;;;;;;;;5009617;28;20210;-56
2021/08/25 03:03:53;;;;;;;6.03;3.67;;;;;;;;;;4990175;28;20176;-55
2021/08/25 03:06:18;;;;;;;11.97;3.80;;;;;;;;;;4996996;28;20749;-55
2021/08/25 03:08:43;;;;;;;5.73;3.80;;;;;;;;;;5007588;28;20195;-56
2021/08/25 03:11:10;;;;;;;19.57;4.30;;;;;;;;;;4997838;28;20211;-56
2021/08/25 03:13:35;;;;;;;6.60;3.97;;;;;;;;;;5000490;28;20175;-56
2021/08/25 03:16:00;;;;;;;6.60;4.03;;;;;;;;;;5003978;28;20589;-54
2021/08/25 03:18:25;;;;;;;5.97;3.90;;;;;;;;;;4996267;28;20176;-55
2021/08/25 03:20:51;;;;;;;6.70;4.23;;;;;;;;;;4990710;28;20212;-55
2021/08/25 03:23:16;;;;;;;6.50;3.83;;;;;;;;;;5010382;28;20229;-56
2021/08/25 03:25:41;;;;;;;14.10;3.70;;;;;;;;;;4997913;28;20187;-56
2021/08/25 03:28:06;;;;;;;6.50;3.63;;;;;;;;;;5007692;28;20188;-55
2021/08/25 03:30:31;;;;;;;6.57;3.80;;;;;;;;;;4996092;28;20199;-55
2021/08/25 03:32:56;;;;;;;6.70;3.90;;;;;;;;;;4991267;28;20211;-56
2021/08/25 03:35:22;;;;;;;5.70;3.60;;;;;;;;;;4991291;28;20180;-55
2021/08/25 03:37:47;;;;;;;5.47;3.97;;;;;;;;;;5011943;28;20551;-54
2021/08/25 03:40:12;;;;;;;5.27;3.67;;;;;;;;;;4997878;28;20199;-55
2021/08/25 03:42:37;;;;;;;5.50;3.20;;;;;;;;;;5003564;28;20183;-54
2021/08/25 03:45:03;;;;;;;4.13;3.10;;;;;;;;;;5000803;28;20211;-55
2021/08/25 03:47:31;;;;;;;5.80;3.27;;;;;;;;;;5007761;28;20179;-56
2021/08/25 03:49:56;;;;;;;4.77;2.83;;;;;;;;;;5009733;28;20226;-56
2021/08/25 03:52:21;;;;;;;6.53;3.40;;;;;;;;;;5009062;28;20644;-55
2021/08/25 03:54:46;;;;;;;5.47;3.03;;;;;;;;;;5009560;28;20172;-55
2021/08/25 03:57:12;;;;;;;4.30;2.87;;;;;;;;;;5008508;28;20267;-56
2021/08/25 03:59:37;;;;;;;4.83;3.50;;;;;;;;;;5008908;28;20191;-56
2021/08/25 04:02:02;;;;;;;4.00;3.50;;;;;;;;;;5006672;28;20182;-55
2021/08/25 04:04:27;;;;;;;4.97;3.43;;;;;;;;;;5010200;28;20219;-54
2021/08/25 04:06:52;;;;;;;4.60;2.90;;;;;;;;;;5009082;28;20243;-55
2021/08/25 04:09:18;;;;;;;3.10;2.70;;;;;;;;;;5005234;28;20222;-56
2021/08/25 04:11:43;;;;;;;4.33;3.50;;;;;;;;;;5006057;28;20208;-56
2021/08/25 04:14:08;;;;;;;6.40;2.80;;;;;;;;;;5008396;28;20190;-55
2021/08/25 04:16:33;;;;;;;4.17;2.97;;;;;;;;;;5009104;28;20179;-55
2021/08/25 04:18:58;;;;;;;3.97;2.80;;;;;;;;;;5005321;28;20194;-57
2021/08/25 04:21:24;;;;;;;6.00;2.97;;;;;;;;;;5006721;28;20711;-54
2021/08/25 04:23:49;;;;;;;6.33;3.43;;;;;;;;;;5008492;28;20727;-56
2021/08/25 04:26:15;;;;;;;5.90;4.00;;;;;;;;;;5009243;28;20182;-55
2021/08/25 04:28:40;;;;;;;5.03;3.70;;;;;;;;;;5006635;28;20551;-56
2021/08/25 04:31:06;;;;;;;5.00;3.27;;;;;;;;;;5007197;28;20203;-57
2021/08/25 04:33:31;;;;;;;5.93;3.63;;;;;;;;;;5009304;28;20302;-56
2021/08/25 04:35:56;;;;;;;7.20;5.20;;;;;;;;;;5009751;28;20204;-55
2021/08/25 04:38:22;;;;;;;5.07;3.17;;;;;;;;;;5010825;28;20679;-54
2021/08/25 04:40:47;;;;;;;5.17;4.10;;;;;;;;;;5004246;28;20204;-55
2021/08/25 04:43:12;;;;;;;4.87;3.37;;;;;;;;;;5008439;28;20172;-54
2021/08/25 04:45:37;;;;;;;4.87;3.17;;;;;;;;;;5009590;28;20663;-56
2021/08/25 04:48:03;;;;;;;6.47;3.30;;;;;;;;;;5008147;28;20544;-56
2021/08/25 04:50:28;;;;;;;4.73;3.70;;;;;;;;;;5008505;28;20206;-56
2021/08/25 04:52:53;;;;;;;7.23;4.90;;;;;;;;;;5008375;28;20250;-56
2021/08/25 04:55:18;;;;;;;8.57;5.37;;;;;;;;;;5008592;28;20175;-56
2021/08/25 04:57:43;;;;;;;8.47;5.73;;;;;;;;;;5007329;28;20186;-55
2021/08/25 05:00:09;;;;;;;5.07;3.70;;;;;;;;;;5005022;28;20663;-56
2021/08/25 05:02:35;;;;;;;6.60;3.43;;;;;;;;;;5008509;28;20184;-55
2021/08/25 05:05:00;;;;;;;7.13;4.00;;;;;;;;;;5012207;28;20218;-56
2021/08/25 05:07:25;;;;;;;6.43;4.30;;;;;;;;;;5009024;28;20223;-56
2021/08/25 05:09:50;;;;;;;5.40;4.50;;;;;;;;;;5012315;28;20215;-56
2021/08/25 05:12:17;;;;;;;5.10;3.40;;;;;;;;;;5007227;28;20254;-56
2021/08/25 05:14:43;;;;;;;4.53;3.17;;;;;;;;;;5005010;28;20174;-56
2021/08/25 05:17:08;;;;;;;4.63;3.00;;;;;;;;;;5012003;28;20172;-56
2021/08/25 05:19:33;;;;;;;5.87;3.00;;;;;;;;;;5012610;28;20286;-56
2021/08/25 05:21:59;;;;;;;4.70;2.90;;;;;;;;;;5012649;28;20262;-53
2021/08/25 05:24:24;;;;;;;10.13;3.67;;;;;;;;;;5003935;28;20188;-58
2021/08/25 05:26:49;;;;;;;4.00;2.90;;;;;;;;;;5000303;28;20247;-56
2021/08/25 05:29:14;;;;;;;5.20;3.03;;;;;;;;;;5006675;28;20680;-57
2021/08/25 05:31:40;;;;;;;4.87;3.00;;;;;;;;;;5007455;28;20204;-56
2021/08/25 05:34:05;;;;;;;4.07;3.30;;;;;;;;;;4991948;28;20207;-55
2021/08/25 05:36:30;;;;;;;4.93;2.90;;;;;;;;;;5010641;28;20176;-54
2021/08/25 05:38:55;;;;;;;5.70;3.40;;;;;;;;;;5013987;28;20600;-56
2021/08/25 05:41:20;;;;;;;4.17;3.03;;;;;;;;;;5007881;28;20168;-54
2021/08/25 05:43:46;;;;;;;4.77;3.20;;;;;;;;;;5010427;28;20237;-56
2021/08/25 05:46:11;;;;;;;6.43;3.50;;;;;;;;;;4992875;28;20266;-55
2021/08/25 05:48:36;;;;;;;5.33;3.30;;;;;;;;;;4991993;28;20188;-56
2021/08/25 05:51:01;;;;;;;3.60;3.10;;;;;;;;;;4999877;28;20219;-56
2021/08/25 05:53:27;;;;;;;5.03;3.33;;;;;;;;;;5011511;28;20246;-57
2021/08/25 05:55:52;;;;;;;4.80;3.90;;;;;;;;;;5003006;28;20183;-57
2021/08/25 05:58:17;;;;;;;4.30;3.63;;;;;;;;;;5005725;28;20223;-56
2021/08/25 06:00:42;;;;;;;6.43;3.63;;;;;;;;;;5009984;28;20206;-57
2021/08/25 06:03:07;;;;;;;7.13;4.67;;;;;;;;;;5009160;28;20186;-58
2021/08/25 06:05:33;;;;;;;5.63;3.53;;;;;;;;;;5009898;28;20172;-57
2021/08/25 06:07:58;;;;;;;7.03;4.47;;;;;;;;;;5012674;28;20175;-57
2021/08/25 06:10:23;;;;;;;6.47;3.87;;;;;;;;;;5002269;28;20199;-57
2021/08/25 06:12:48;;;;;;;6.83;4.20;;;;;;;;;;4996858;28;20717;-57
2021/08/25 06:15:14;;;;;;;5.47;4.23;;;;;;;;;;4996104;28;20219;-57
2021/08/25 06:17:39;;;;;;;6.90;4.17;;;;;;;;;;5010787;28;20184;-58
2021/08/25 06:20:04;;;;;;;5.93;3.90;;;;;;;;;;4994288;28;20254;-57
2021/08/25 06:22:30;;;;;;;6.43;3.87;;;;;;;;;;4997468;28;20192;-57
2021/08/25 06:24:56;;;;;;;7.83;4.13;;;;;;;;;;5003569;28;20192;-57
2021/08/25 06:27:21;;;;;;;5.40;3.77;;;;;;;;;;4996364;28;20476;-57
2021/08/25 06:29:46;;;;;;;6.03;4.20;;;;;;;;;;5001789;28;20288;-57
2021/08/25 06:32:11;;;;;;;4.80;3.55;;;;;;;;;;5005898;28;20510;-57
2021/08/25 06:34:36;;;;;;;5.70;4.03;;;;;;;;;;5006194;28;20179;-56
2021/08/25 06:37:02;;;;;;;6.83;3.90;;;;;;;;;;5007412;28;20181;-57
2021/08/25 06:39:27;;;;;;;6.00;4.35;;;;;;;;;;5009183;28;20226;-55
2021/08/25 06:41:52;;;;;;;10.30;4.40;;;;;;;;;;4988352;28;20180;-56
2021/08/25 06:44:18;;;;;;;8.23;4.57;;;;;;;;;;5003665;28;20183;-55
2021/08/25 06:46:43;;;;;;;6.25;4.47;;;;;;;;;;5003753;28;20195;-56
2021/08/25 06:49:08;;;;;;;6.03;4.37;;;;;;;;;;5005964;28;20245;-56
2021/08/25 06:51:33;;;;;;;6.33;4.20;;;;;;;;;;5002116;28;20202;-57
2021/08/25 06:54:00;;;;;;;7.93;3.88;;;;;;;;;;5010439;28;20191;-58
2021/08/25 06:56:25;;;;;;;6.33;4.33;;;;;;;;;;5008356;28;20176;-57
2021/08/25 06:58:50;;;;;;;5.27;3.73;;;;;;;;;;5005424;28;20721;-56
2021/08/25 07:01:15;;;;;;;7.85;4.53;;;;;;;;;;5006482;28;20198;-55
2021/08/25 07:03:41;;;;;;;6.47;4.63;;;;;;;;;;5008216;28;20199;-56
2021/08/25 07:06:06;;;;;;;6.43;4.50;;;;;;;;;;5007704;28;20199;-55
2021/08/25 07:08:31;;;;;;;14.57;4.88;;;;;;;;;;5009113;28;20194;-57
2021/08/25 07:10:57;;;;;;;6.72;3.90;;;;;;;;;;5006307;28;20215;-57
2021/08/25 07:13:22;;;;;;;9.30;4.25;;;;;;;;;;4997764;28;20171;-57
2021/08/25 07:15:47;;;;;;;11.10;4.40;;;;;;;;;;5007182;28;20176;-57
2021/08/25 07:18:12;;;;;;;11.32;5.15;;;;;;;;;;5010754;28;20663;-56
2021/08/25 07:20:37;;;;;;;11.48;4.88;;;;;;;;;;5008754;28;20202;-57
2021/08/25 07:23:03;;;;;;;9.85;5.10;;;;;;;;;;4990746;28;20172;-57
2021/08/25 07:25:28;;;;;;;8.23;4.60;;;;;;;;;;5003161;28;20218;-57
2021/08/25 07:27:53;;;;;;;6.93;4.63;;;;;;;;;;5003917;28;20666;-58
2021/08/25 07:30:18;;;;;;;6.93;4.57;;;;;;;;;;4994797;28;20206;-57
2021/08/25 07:32:44;;;;;;;9.98;5.07;;;;;;;;;;4997015;28;20211;-56
2021/08/25 07:35:10;;;;;;;12.85;6.05;;;;;;;;;;5005525;28;20185;-57
2021/08/25 07:37:35;;;;;;;10.02;5.32;;;;;;;;;;5002102;28;20655;-56
2021/08/25 07:40:01;;;;;;;9.77;5.05;;;;;;;;;;5003762;28;20210;-57
2021/08/25 07:42:26;;;;;;;8.55;5.05;;;;;;;;;;4997358;28;20172;-56
2021/08/25 07:44:51;;;;;;;8.30;5.13;;;;;;;;;;4995319;28;20191;-55
2021/08/25 07:47:17;;;;;;;8.95;5.18;;;;;;;;;;4999107;28;20191;-57
2021/08/25 07:49:42;;;;;;;9.90;5.22;;;;;;;;;;4988186;28;20195;-57
2021/08/25 07:52:07;;;;;;;10.90;5.20;;;;;;;;;;4987966;28;20211;-57
2021/08/25 07:54:32;;;;;;;9.85;4.95;;;;;;;;;;4998787;28;20205;-56
2021/08/25 07:56:58;;;;;;;7.78;5.07;;;;;;;;;;4991103;28;20261;-57
2021/08/25 07:59:23;;;;;;;11.00;4.93;;;;;;;;;;5001474;28;20238;-57
2021/08/25 08:01:48;;;;;;;9.13;5.13;;;;;;;;;;5004762;28;20188;-55
2021/08/25 08:04:13;;;;;;;8.02;5.18;;;;;;;;;;5007097;28;20249;-57
2021/08/25 08:06:38;;;;;;;8.13;4.97;;;;;;;;;;5007727;28;20188;-57
2021/08/25 08:11:31;;;;;;;11.82;5.63;;;;;;;;;;5029799;23;20714;-57
2021/08/25 08:13:56;;;;;;;11.40;5.28;;;;;;;;;;5015614;28;20192;-56
2021/08/25 08:16:22;;;;;;;12.63;5.75;;;;;;;;;;5011771;28;20187;-56
2021/08/25 08:19:29;;;;;;;8.52;5.85;;;;;;;;;;5006442;28;20570;-58
2021/08/25 08:21:39;;;;;;;16.45;7.50;;;;;;;;;;4996201;28;20194;-56
2021/08/25 08:24:04;;;;;;;12.80;6.78;;;;;;;;;;5005923;28;20195;-57
2021/08/25 08:26:30;;;;;;;10.27;6.73;;;;;;;;;;5006449;28;20261;-56
2021/08/25 08:28:55;;;;;;;13.03;6.57;;;;;;;;;;4997490;28;20430;-56
2021/08/25 08:31:21;;;;;;;16.48;6.50;;;;;;;;;;4998318;28;20985;-58
2021/08/25 08:33:46;;;;;;;14.82;6.05;;;;;;;;;;5007259;28;20270;-57
2021/08/25 08:36:11;;;;;;;12.27;6.32;;;;;;;;;;5006763;28;20659;-56
2021/08/25 08:38:36;;;;;;;13.45;6.00;;;;;;;;;;5011160;28;20179;-56
2021/08/25 08:41:01;;;;;;;12.85;6.40;;;;;;;;;;5000460;28;20199;-56
2021/08/25 08:43:27;;;;;;;12.38;6.15;;;;;;;;;;5000511;28;20243;-58
2021/08/25 08:45:52;;;;;;;15.45;6.80;;;;;;;;;;5010393;28;20237;-58
2021/08/25 08:48:17;;;;;;;11.90;7.22;;;;;;;;;;5002212;28;20188;-57
2021/08/25 08:50:46;;;;;;;13.77;6.63;;;;;;;;;;4998536;28;20222;-58
2021/08/25 08:53:11;;;;;;;9.32;6.28;;;;;;;;;;5002826;28;20176;-57
2021/08/25 08:55:37;;;;;;;12.98;6.45;;;;;;;;;;5011604;28;20241;-57
2021/08/25 08:58:02;;;;;;;10.50;5.90;;;;;;;;;;4994421;28;20199;-57
2021/08/25 09:00:28;;;;;;;10.30;6.47;;;;;;;;;;5006886;28;20278;-57
2021/08/25 09:02:53;;;;;;;9.35;6.90;;;;;;;;;;5013053;28;20670;-57
2021/08/25 09:05:18;;;;;;;11.70;6.45;;;;;;;;;;5013448;28;20176;-57
2021/08/25 09:07:50;;;;;;;12.23;6.23;;;;;;;;;;5013395;28;20179;-57
2021/08/25 09:10:26;;;;;;;12.30;6.07;;;;;;;;;;5005777;28;20996;-57
2021/08/25 09:12:52;;;;;;;10.45;6.80;;;;;;;;;;5011236;28;20214;-57
2021/08/25 09:15:18;;;;;;;10.10;6.20;;;;;;;;;;5010113;28;20596;-58
2021/08/25 09:17:43;;;;;;;9.20;5.95;;;;;;;;;;5008800;28;20200;-57
2021/08/25 09:20:09;;;;;;;8.02;5.40;;;;;;;;;;4997864;28;20215;-56
2021/08/25 09:22:34;;;;;;;7.97;5.68;;;;;;;;;;4990920;28;20435;-57
2021/08/25 09:24:59;;;;;;;10.23;5.18;;;;;;;;;;4998632;28;20187;-58
2021/08/25 09:27:25;;;;;;;9.07;5.82;;;;;;;;;;5002105;28;20183;-56
2021/08/25 09:29:54;;;;;;;8.25;5.40;;;;;;;;;;5006015;28;20207;-56
2021/08/25 09:32:21;;;;;;;11.27;5.68;;;;;;;;;;5000303;28;20205;-57
2021/08/25 09:34:52;;;;;;;9.00;5.50;;;;;;;;;;4993318;28;20551;-57
2021/08/25 09:37:17;;;;;;;8.07;5.55;;;;;;;;;;5010980;28;20538;-57
2021/08/25 09:39:44;;;;;;;11.43;5.72;;;;;;;;;;5008597;28;20262;-55
2021/08/25 09:42:13;;;;;;;13.07;5.85;;;;;;;;;;5007936;28;20180;-59
2021/08/25 09:44:38;;;;;;;15.00;5.70;;;;;;;;;;5004608;28;20206;-56
2021/08/25 09:47:04;;;;;;;10.60;5.00;;;;;;;;;;5000604;28;20747;-57
2021/08/25 09:49:29;;;;;;;9.00;5.00;;;;;;;;;;4992686;28;20227;-56
2021/08/25 09:51:54;;;;;;;6.78;4.90;;;;;;;;;;4997372;28;20202;-56
2021/08/25 09:54:20;;;;;;;7.32;5.47;;;;;;;;;;5012559;28;20172;-57
2021/08/25 09:56:46;;;;;;;11.35;5.95;;;;;;;;;;5002687;28;20660;-57
2021/08/25 09:59:12;;;;;;;11.30;5.45;;;;;;;;;;5001373;28;20259;-58
2021/08/25 10:01:37;;;;;;;9.88;4.93;;;;;;;;;;5002140;28;20263;-57
2021/08/25 10:04:03;;;;;;;10.82;4.88;;;;;;;;;;4993624;28;20259;-57
2021/08/25 10:06:28;;;;;;;6.55;4.55;;;;;;;;;;4992697;28;20168;-57
2021/08/25 10:08:54;;;;;;;7.05;4.15;;;;;;;;;;4992579;28;20227;-56
2021/08/25 10:11:27;;;;;;;4.93;3.50;;;;;;;;;;5010283;28;20230;-57
2021/08/25 10:13:52;;;;;;;6.75;3.70;;;;;;;;;;5006611;28;20857;-57
2021/08/25 10:16:38;;;;;;;6.50;3.80;;;;;;;;;;4999196;28;20275;-56
2021/08/25 10:19:22;;;;;;;8.00;3.35;;;;;;;;;;5008245;28;20494;-56
2021/08/25 10:21:47;;;;;;;6.45;3.38;;;;;;;;;;4999513;28;20662;-57
2021/08/25 10:24:12;;;;;;;6.82;4.32;;;;;;;;;;5012110;28;20262;-56
2021/08/25 10:26:56;;;;;;;9.23;3.58;;;;;;;;;;5008376;28;20187;-57
2021/08/25 10:29:21;;;;;;;8.25;3.83;;;;;;;;;;5009408;28;20266;-57
2021/08/25 10:31:49;;;;;;;6.67;3.97;;;;;;;;;;4998273;28;20282;-57
2021/08/25 10:34:14;;;;;;;5.95;3.47;;;;;;;;;;5011818;28;20504;-56
2021/08/25 10:36:41;;;;;;;6.95;4.18;;;;;;;;;;5008483;28;20649;-57
2021/08/25 10:39:25;;;;;;;9.55;3.70;;;;;;;;;;5009393;28;20934;-56
2021/08/25 10:41:50;;;;;;;7.03;3.60;;;;;;;;;;4997705;28;20194;-57
2021/08/25 10:44:35;;;;;;;6.18;3.85;;;;;;;;;;5007317;28;20188;-56
2021/08/25 10:47:03;;;;;;;5.60;3.70;;;;;;;;;;5009112;28;20671;-55
2021/08/25 10:49:32;;;;;;;6.53;3.53;;;;;;;;;;4992621;28;20227;-56
2021/08/25 10:52:15;;;;;;;5.13;3.42;;;;;;;;;;4992206;28;20204;-58
2021/08/25 10:54:51;;;;;;;13.23;3.42;;;;;;;;;;4991349;28;20255;-58
2021/08/25 10:57:17;;;;;;;12.18;3.53;;;;;;;;;;5006239;28;20241;-58
2021/08/25 10:59:43;;;;;;;9.18;3.38;;;;;;;;;;5004520;28;20206;-57
2021/08/25 11:02:08;;;;;;;5.50;3.33;;;;;;;;;;5007391;28;20183;-57
2021/08/25 11:04:33;;;;;;;6.30;3.72;;;;;;;;;;4999589;28;20187;-56
2021/08/25 11:07:01;;;;;;;4.43;3.65;;;;;;;;;;4995060;28;20270;-56
2021/08/25 11:09:34;;;;;;;4.85;3.78;;;;;;;;;;4999110;28;20168;-57
2021/08/25 11:12:02;;;;;;;4.63;3.42;;;;;;;;;;5000038;28;20310;-57
2021/08/25 11:14:32;;;;;;;4.53;3.70;;;;;;;;;;5001807;28;20586;-57
2021/08/25 11:17:02;;;;;;;6.13;4.60;;;;;;;;;;4978402;28;20266;-57
2021/08/25 11:19:29;;;;;;;5.13;3.80;;;;;;;;;;4993167;28;20199;-57
2021/08/25 11:21:55;;;;;;;5.38;4.13;;;;;;;;;;4993376;28;20186;-54
2021/08/25 11:24:20;;;;;;;7.63;3.90;;;;;;;;;;4987542;28;20179;-55
2021/08/25 11:26:46;;;;;;;6.22;4.35;;;;;;;;;;4996656;28;20213;-56
2021/08/25 11:29:29;;;;;;;4.82;3.70;;;;;;;;;;5001994;28;20172;-56
2021/08/25 11:31:54;;;;;;;5.78;3.60;;;;;;;;;;4986963;28;20204;-55
2021/08/25 11:34:24;;;;;;;8.87;4.20;;;;;;;;;;5003827;28;20745;-56
2021/08/25 11:36:56;;;;;;;15.10;4.32;;;;;;;;;;4990658;28;20411;-55
2021/08/25 11:39:21;;;;;;;5.50;3.72;;;;;;;;;;4991538;28;20266;-55
2021/08/25 11:41:47;;;;;;;5.70;4.13;;;;;;;;;;4991132;28;20258;-56
2021/08/25 11:44:13;;;;;;;4.97;3.38;;;;;;;;;;4992467;28;20190;-55
2021/08/25 11:46:38;;;;;;;4.45;3.45;;;;;;;;;;4994741;28;20218;-55
2021/08/25 11:49:03;;;;;;;4.80;3.87;;;;;;;;;;4998437;28;20175;-54
2021/08/25 11:51:28;;;;;;;4.70;3.90;;;;;;;;;;5007265;28;21125;-57
2021/08/25 11:53:54;;;;;;;5.25;4.10;;;;;;;;;;4989715;28;20184;-58
2021/08/25 11:56:19;;;;;;;7.50;4.43;;;;;;;;;;4990420;28;20199;-57
2021/08/25 11:58:44;;;;;;;5.90;3.90;;;;;;;;;;5006107;28;20239;-58
2021/08/25 12:01:23;;;;;;;6.07;4.65;;;;;;;;;;4995132;28;20447;-55
2021/08/25 12:03:48;;;;;;;6.25;3.90;;;;;;;;;;5001893;28;20179;-56
2021/08/25 12:06:19;;;;;;;10.57;3.97;;;;;;;;;;4998480;28;20545;-57
2021/08/25 12:08:46;;;;;;;5.90;4.53;;;;;;;;;;5007760;28;20278;-58
2021/08/25 12:11:12;;;;;;;7.85;3.58;;;;;;;;;;4995849;28;20226;-57
2021/08/25 12:13:38;;;;;;;5.95;4.20;;;;;;;;;;5008393;28;20178;-57
2021/08/25 12:16:07;;;;;;;5.35;3.75;;;;;;;;;;5003441;28;20183;-57
2021/08/25 12:18:45;;;;;;;5.97;4.35;;;;;;;;;;5010894;28;20254;-55
2021/08/25 12:21:10;;;;;;;6.32;4.00;;;;;;;;;;4994050;28;20199;-56
2021/08/25 12:23:35;;;;;;;6.03;4.10;;;;;;;;;;5012182;28;20179;-57
2021/08/25 12:26:00;;;;;;;6.50;4.77;;;;;;;;;;5007418;28;20187;-57
2021/08/25 12:28:36;;;;;;;7.47;3.90;;;;;;;;;;5001869;28;21070;-56
2021/08/25 12:31:10;;;;;;;7.28;3.70;;;;;;;;;;5004028;28;20275;-57
2021/08/25 12:33:36;;;;;;;9.65;4.32;;;;;;;;;;5000875;28;20245;-57
2021/08/25 12:36:19;;;;;;;5.18;3.80;;;;;;;;;;4993029;28;20247;-57
2021/08/25 12:38:44;;;;;;;9.07;4.13;;;;;;;;;;4995540;28;20168;-57
2021/08/25 12:41:10;;;;;;;7.88;3.67;;;;;;;;;;5011883;28;20195;-59
2021/08/25 12:43:35;;;;;;;7.00;3.90;;;;;;;;;;5012379;28;20686;-56
2021/08/25 12:46:00;;;;;;;7.00;3.93;;;;;;;;;;4996543;28;20438;-55
2021/08/25 12:48:25;;;;;;;5.77;3.80;;;;;;;;;;5005609;28;20493;-58
2021/08/25 12:50:50;;;;;;;7.60;4.00;;;;;;;;;;5013269;28;20449;-58
2021/08/25 12:53:15;;;;;;;10.00;3.88;;;;;;;;;;4997204;28;20419;-58
2021/08/25 12:55:41;;;;;;;7.27;4.13;;;;;;;;;;4993946;28;20207;-57
2021/08/25 12:58:06;;;;;;;5.33;3.90;;;;;;;;;;5000309;28;20457;-57
2021/08/25 13:00:36;;;;;;;9.97;4.03;;;;;;;;;;4999463;28;20454;-59
2021/08/25 13:03:02;;;;;;;8.95;4.30;;;;;;;;;;4996257;28;20526;-57
2021/08/25 13:05:27;;;;;;;9.40;3.92;;;;;;;;;;5012063;28;20261;-57
2021/08/25 13:07:52;;;;;;;7.87;3.87;;;;;;;;;;5004423;28;20660;-56
2021/08/25 13:10:17;;;;;;;13.23;4.37;;;;;;;;;;4999169;28;20447;-57
2021/08/25 13:12:42;;;;;;;7.65;4.47;;;;;;;;;;4994226;28;20973;-59
2021/08/25 13:15:08;;;;;;;6.90;4.60;;;;;;;;;;5008954;28;20198;-56
2021/08/25 13:17:33;;;;;;;9.95;4.07;;;;;;;;;;4995045;28;20431;-57
2021/08/25 13:19:58;;;;;;;11.18;4.18;;;;;;;;;;5009724;28;20286;-56
2021/08/25 13:22:24;;;;;;;10.90;4.15;;;;;;;;;;5002925;28;20182;-58
2021/08/25 13:24:49;;;;;;;5.38;3.53;;;;;;;;;;4993041;28;20238;-55
2021/08/25 13:27:14;;;;;;;6.10;4.05;;;;;;;;;;4993222;28;20191;-56
2021/08/25 13:29:39;;;;;;;4.37;3.27;;;;;;;;;;5004432;28;20200;-56
2021/08/25 13:32:05;;;;;;;9.07;3.88;;;;;;;;;;4994722;28;20832;-56
2021/08/25 13:34:30;;;;;;;22.90;4.32;;;;;;;;;;5001445;28;20702;-55
2021/08/25 13:36:55;;;;;;;5.57;4.00;;;;;;;;;;4992983;28;20168;-57
2021/08/25 13:39:21;;;;;;;9.30;4.60;;;;;;;;;;4995902;28;20885;-56
2021/08/25 13:41:46;;;;;;;5.53;3.97;;;;;;;;;;5008633;28;20180;-56
2021/08/25 13:44:11;;;;;;;7.57;4.40;;;;;;;;;;5001205;28;20176;-57
2021/08/25 13:46:37;;;;;;;8.40;4.17;;;;;;;;;;5003246;28;20677;-56
2021/08/25 13:49:02;;;;;;;8.20;4.35;;;;;;;;;;5002068;28;20439;-56
2021/08/25 13:51:27;;;;;;;4.90;3.85;;;;;;;;;;5010482;28;20222;-57
2021/08/25 13:53:52;;;;;;;6.23;4.00;;;;;;;;;;5012249;28;20187;-56
2021/08/25 13:56:17;;;;;;;14.68;4.72;;;;;;;;;;5012219;28;20430;-56
2021/08/25 13:58:43;;;;;;;8.30;4.43;;;;;;;;;;5011418;28;20663;-57
2021/08/25 14:01:08;;;;;;;5.72;4.28;;;;;;;;;;5001945;28;20789;-57
2021/08/25 14:03:33;;;;;;;7.78;4.35;;;;;;;;;;4999517;28;20175;-57
2021/08/25 14:05:58;;;;;;;6.22;4.00;;;;;;;;;;4993126;28;20180;-57
2021/08/25 14:08:24;;;;;;;6.38;3.80;;;;;;;;;;4992057;28;20198;-57
2021/08/25 14:10:49;;;;;;;5.25;4.05;;;;;;;;;;4987608;23;20247;-56
2021/08/25 14:13:14;;;;;;;7.15;3.92;;;;;;;;;;4962521;28;20196;-57
2021/08/25 14:15:39;;;;;;;4.75;3.35;;;;;;;;;;4969124;28;20191;-60
2021/08/25 14:18:04;;;;;;;7.72;4.47;;;;;;;;;;4988227;28;20263;-58
2021/08/25 14:20:30;;;;;;;6.03;3.83;;;;;;;;;;4972086;28;20228;-55
2021/08/25 14:22:55;;;;;;;9.43;4.30;;;;;;;;;;4969553;28;20188;-57
2021/08/25 14:25:21;;;;;;;11.57;4.70;;;;;;;;;;4972373;28;20208;-57
2021/08/25 14:27:46;;;;;;;7.20;4.07;;;;;;;;;;4970521;28;20679;-56
2021/08/25 14:30:11;;;;;;;6.47;3.60;;;;;;;;;;4963918;28;20215;-54
2021/08/25 14:32:36;;;;;;;5.10;3.65;;;;;;;;;;4965202;28;20461;-55
2021/08/25 14:35:01;;;;;;;7.70;4.10;;;;;;;;;;4955409;28;20185;-56
2021/08/25 14:37:27;;;;;;;5.28;3.95;;;;;;;;;;4953250;28;20198;-55